createdAt,value
2022-11-07T00:00:50.345Z,9.667977
2022-11-07T00:01:50.851Z,9.667998
2022-11-07T00:02:49.824Z,9.668046
2022-11-07T00:03:49.826Z,9.667988
2022-11-07T00:04:49.791Z,9.667940
2022-11-07T00:05:49.814Z,9.667964
2022-11-07T00:06:49.790Z,9.667965
2022-11-07T00:07:49.765Z,9.667987
2022-11-07T00:08:49.760Z,9.667987
2022-11-07T00:09:49.786Z,9.668020
2022-11-07T00:10:49.731Z,9.668032
2022-11-07T00:11:49.743Z,9.667950
2022-11-07T00:12:49.758Z,9.667959
2022-11-07T00:13:49.702Z,9.667937
2022-11-07T00:14:49.694Z,9.667951
2022-11-07T00:15:49.733Z,9.667962
2022-11-07T00:16:49.696Z,9.667972
2022-11-07T00:17:49.685Z,9.667959
2022-11-07T00:18:49.695Z,9.667931
2022-11-07T00:19:49.654Z,9.667963
2022-11-07T00:20:49.643Z,9.667985
2022-11-07T00:21:49.694Z,9.668024
2022-11-07T00:22:49.643Z,9.668019
2022-11-07T00:23:49.676Z,9.667989
2022-11-07T00:24:49.638Z,9.667976
2022-11-07T00:25:49.629Z,9.668006
2022-11-07T00:26:49.628Z,9.667993
2022-11-07T00:27:49.597Z,9.667932
2022-11-07T00:28:49.575Z,9.667981
2022-11-07T00:29:50.605Z,9.667912
2022-11-07T00:30:50.160Z,9.667934
2022-11-07T00:31:49.562Z,9.667940
2022-11-07T00:32:49.553Z,9.668010
2022-11-07T00:33:49.551Z,9.667937
2022-11-07T00:34:49.551Z,9.667914
2022-11-07T00:35:49.556Z,9.667932
2022-11-07T00:36:49.606Z,9.667929
2022-11-07T00:37:49.521Z,9.667891
2022-11-07T00:38:49.507Z,9.667945
2022-11-07T00:39:49.503Z,9.667935
2022-11-07T00:40:49.515Z,9.667912
2022-11-07T00:41:49.499Z,9.667871
2022-11-07T00:42:49.504Z,9.667877
2022-11-07T00:43:49.479Z,9.667937
2022-11-07T00:44:49.472Z,9.668007
2022-11-07T00:45:49.463Z,9.667928
2022-11-07T00:46:49.460Z,9.667933
2022-11-07T00:47:49.472Z,9.667995
2022-11-07T00:48:49.470Z,9.667940
2022-11-07T00:49:49.425Z,9.667912
2022-11-07T00:50:49.407Z,9.667919
2022-11-07T00:51:49.413Z,9.667902
2022-11-07T00:52:49.421Z,9.667976
2022-11-07T00:53:49.420Z,9.667916
2022-11-07T00:54:49.393Z,9.667903
2022-11-07T00:55:50.082Z,9.667892
2022-11-07T00:56:49.402Z,9.667900
2022-11-07T00:57:49.366Z,9.667914
2022-11-07T00:58:49.360Z,9.667959
2022-11-07T00:59:49.358Z,9.667956
2022-11-07T01:00:49.403Z,9.667976
2022-11-07T01:01:49.471Z,9.667977
2022-11-07T01:02:49.424Z,9.667974
2022-11-07T01:03:49.322Z,9.667994
2022-11-07T01:04:49.355Z,9.667952
2022-11-07T01:05:49.312Z,9.667918
2022-11-07T01:06:49.305Z,9.667924
2022-11-07T01:07:49.352Z,9.667974
2022-11-07T01:08:49.313Z,9.667996
2022-11-07T01:09:49.285Z,9.667968
2022-11-07T01:10:49.299Z,9.667984
2022-11-07T01:11:49.277Z,9.668004
2022-11-07T01:12:49.246Z,9.667970
2022-11-07T01:13:49.276Z,9.667949
2022-11-07T01:14:49.241Z,9.667965
2022-11-07T01:15:49.239Z,9.667942
2022-11-07T01:16:50.167Z,9.667963
2022-11-07T01:17:49.235Z,9.667953
2022-11-07T01:18:49.238Z,9.667955
2022-11-07T01:19:49.247Z,9.667931
2022-11-07T01:20:49.209Z,9.667950
2022-11-07T01:21:49.362Z,9.667968
2022-11-07T01:22:49.203Z,9.667945
2022-11-07T01:23:49.180Z,9.667923
2022-11-07T01:24:49.165Z,9.667989
2022-11-07T01:25:49.197Z,9.667980
2022-11-07T01:26:49.203Z,9.667952
2022-11-07T01:27:49.139Z,9.667893
2022-11-07T01:28:49.154Z,9.667920
2022-11-07T01:29:49.144Z,9.667902
2022-11-07T01:30:49.115Z,9.667927
2022-11-07T01:31:49.143Z,9.667913
2022-11-07T01:32:49.105Z,9.667927
2022-11-07T01:33:49.713Z,9.667927
2022-11-07T01:34:49.106Z,9.667927
2022-11-07T01:35:49.110Z,9.667957
2022-11-07T01:36:49.082Z,9.667969
2022-11-07T01:37:49.078Z,9.667919
2022-11-07T01:38:49.055Z,9.667941
2022-11-07T01:39:49.042Z,9.667939
2022-11-07T01:40:49.665Z,9.667971
2022-11-07T01:41:49.056Z,9.667954
2022-11-07T01:42:49.026Z,9.667967
2022-11-07T01:43:49.071Z,9.667989
2022-11-07T02:04:20.518Z,9.667945
2022-11-07T02:05:19.565Z,9.667936
2022-11-07T02:06:19.532Z,9.667951
2022-11-07T02:07:19.542Z,9.667990
2022-11-07T02:08:19.532Z,9.667995
2022-11-07T02:09:19.516Z,9.668005
2022-11-07T02:10:19.540Z,9.667968
2022-11-07T02:11:19.492Z,9.668020
2022-11-07T02:12:19.527Z,9.667965
2022-11-07T02:13:19.480Z,9.667961
2022-11-07T02:14:19.484Z,9.668015
2022-11-07T02:15:51.400Z,9.667981
2022-11-07T02:16:19.468Z,9.667931
2022-11-07T02:17:19.482Z,9.667961
2022-11-07T02:18:19.464Z,9.667951
2022-11-07T02:19:19.435Z,9.667946
2022-11-07T02:20:20.165Z,9.668015
2022-11-07T02:21:19.480Z,9.667955
2022-11-07T02:22:19.411Z,9.667985
2022-11-07T02:23:19.427Z,9.667993
2022-11-07T02:24:19.460Z,9.667974
2022-11-07T02:25:19.400Z,9.667991
2022-11-07T02:26:19.412Z,9.667978
2022-11-07T02:27:19.396Z,9.667998
2022-11-07T02:28:19.377Z,9.668002
2022-11-07T02:29:19.357Z,9.667990
2022-11-07T02:30:19.396Z,9.668028
2022-11-07T02:31:19.348Z,9.668000
2022-11-07T02:32:19.329Z,9.667939
2022-11-07T02:33:19.342Z,9.667946
2022-11-07T02:34:19.418Z,9.667996
2022-11-07T02:35:20.318Z,9.668003
2022-11-07T02:36:19.292Z,9.667975
2022-11-07T02:37:19.327Z,9.667954
2022-11-07T02:38:19.309Z,9.667934
2022-11-07T02:39:19.303Z,9.667952
2022-11-07T02:40:19.288Z,9.667956
2022-11-07T02:41:19.288Z,9.667965
2022-11-07T02:42:19.257Z,9.667965
2022-11-07T02:43:19.263Z,9.668009
2022-11-07T02:44:19.259Z,9.667978
2022-11-07T02:45:19.255Z,9.667943
2022-11-07T02:46:19.215Z,9.668007
2022-11-07T02:47:19.210Z,9.667990
2022-11-07T02:48:19.216Z,9.667974
2022-11-07T02:49:19.206Z,9.667998
2022-11-07T02:50:19.209Z,9.668002
2022-11-07T02:51:19.213Z,9.667946
2022-11-07T02:52:19.182Z,9.668056
2022-11-07T02:53:19.177Z,9.667907
2022-11-07T02:54:19.161Z,9.668015
2022-11-07T02:55:19.188Z,9.668063
2022-11-07T02:56:19.151Z,9.667999
2022-11-07T02:57:19.146Z,9.667939
2022-11-07T02:58:19.124Z,9.667947
2022-11-07T02:59:22.962Z,9.667953
2022-11-07T03:00:21.167Z,9.667944
2022-11-07T03:01:19.159Z,9.668036
2022-11-07T03:02:19.261Z,9.667994
2022-11-07T03:03:19.116Z,9.667916
2022-11-07T03:04:19.092Z,9.667994
2022-11-07T03:05:19.094Z,9.667933
2022-11-07T03:06:19.101Z,9.668004
2022-11-07T03:07:19.097Z,9.667965
2022-11-07T03:08:19.066Z,9.668006
2022-11-07T03:09:19.050Z,9.667988
2022-11-07T03:10:19.048Z,9.667908
2022-11-07T03:11:19.072Z,9.667963
2022-11-07T03:12:19.087Z,9.668065
2022-11-07T03:13:19.027Z,9.667968
2022-11-07T03:14:19.033Z,9.667982
2022-11-07T03:15:19.022Z,9.668021
2022-11-07T03:16:19.002Z,9.667957
2022-11-07T03:17:20.030Z,9.667980
2022-11-07T03:18:19.037Z,9.667985
2022-11-07T03:19:18.986Z,9.668000
2022-11-07T03:20:19.509Z,9.667875
2022-11-07T03:21:18.984Z,9.667956
2022-11-07T03:22:18.961Z,9.667970
2022-11-07T03:23:18.974Z,9.667901
2022-11-07T03:24:18.989Z,9.667920
2022-11-07T03:25:18.954Z,9.667940
2022-11-07T03:26:18.927Z,9.667952
2022-11-07T03:27:18.910Z,9.667924
2022-11-07T03:28:18.939Z,9.667955
2022-11-07T03:29:18.900Z,9.667879
2022-11-07T03:30:18.907Z,9.667831
2022-11-07T03:31:19.897Z,9.667801
2022-11-07T03:32:18.866Z,9.667937
2022-11-07T03:33:18.872Z,9.667943
2022-11-07T03:34:18.866Z,9.667985
2022-11-07T03:35:18.868Z,9.667946
2022-11-07T03:36:18.855Z,9.667959
2022-11-07T03:37:18.879Z,9.667876
2022-11-07T03:38:18.960Z,9.667846
2022-11-07T03:39:24.633Z,9.667926
2022-11-07T03:40:20.845Z,9.667906
2022-11-07T03:41:18.833Z,9.667951
2022-11-07T03:42:18.827Z,9.667895
2022-11-07T03:43:18.808Z,9.667911
2022-11-07T03:44:18.779Z,9.667849
2022-11-07T03:45:18.803Z,9.667791
2022-11-07T03:46:18.779Z,9.667893
2022-11-07T03:47:18.763Z,9.667839
2022-11-07T04:06:40.347Z,9.668077
2022-11-07T04:07:40.357Z,9.667997
2022-11-07T04:08:40.317Z,9.667940
2022-11-07T04:09:40.300Z,9.667933
2022-11-07T04:10:40.359Z,9.667945
2022-11-07T04:11:40.293Z,9.667947
2022-11-07T04:12:41.330Z,9.667934
2022-11-07T04:13:40.281Z,9.667914
2022-11-07T04:14:40.286Z,9.667949
2022-11-07T04:15:40.413Z,9.667951
2022-11-07T04:16:40.279Z,9.667933
2022-11-07T04:17:40.258Z,9.667960
2022-11-07T04:18:40.251Z,9.667955
2022-11-07T04:19:41.222Z,9.667953
2022-11-07T04:20:40.230Z,9.667963
2022-11-07T04:21:40.230Z,9.667946
2022-11-07T04:22:40.249Z,9.667972
2022-11-07T04:23:40.220Z,9.667949
2022-11-07T04:24:45.424Z,9.667960
2022-11-07T04:25:42.206Z,9.667957
2022-11-07T04:26:40.272Z,9.667940
2022-11-07T04:27:40.294Z,9.667933
2022-11-07T04:28:40.179Z,9.667923
2022-11-07T04:29:40.148Z,9.667924
2022-11-07T04:30:40.166Z,9.667941
2022-11-07T04:31:40.151Z,9.667946
2022-11-07T04:32:40.148Z,9.667977
2022-11-07T04:33:40.156Z,9.668001
2022-11-07T04:34:40.159Z,9.667992
2022-11-07T04:35:40.119Z,9.668003
2022-11-07T04:36:40.114Z,9.667993
2022-11-07T04:37:40.095Z,9.667982
2022-11-07T04:38:40.092Z,9.667984
2022-11-07T04:39:40.093Z,9.668009
2022-11-07T04:40:40.117Z,9.667995
2022-11-07T04:41:41.082Z,9.667979
2022-11-07T04:42:40.084Z,9.667982
2022-11-07T04:43:40.043Z,9.667960
2022-11-07T04:44:40.037Z,9.667960
2022-11-07T04:45:40.081Z,9.667961
2022-11-07T04:46:40.042Z,9.667962
2022-11-07T04:47:40.752Z,9.667976
2022-11-07T04:48:41.027Z,9.667987
2022-11-07T04:49:40.003Z,9.667992
2022-11-07T04:50:40.000Z,9.668020
2022-11-07T04:51:39.997Z,9.668054
2022-11-07T04:52:39.979Z,9.668002
2022-11-07T04:53:39.964Z,9.668016
2022-11-07T04:54:39.956Z,9.667989
2022-11-07T04:55:39.947Z,9.668015
2022-11-07T04:56:39.959Z,9.668004
2022-11-07T04:57:40.041Z,9.667994
2022-11-07T04:58:39.912Z,9.667982
2022-11-07T04:59:39.904Z,9.667994
2022-11-07T05:00:39.893Z,9.667994
2022-11-07T05:01:39.958Z,9.668037
2022-11-07T05:02:39.965Z,9.668013
2022-11-07T05:03:42.132Z,9.668036
2022-11-07T05:04:40.870Z,9.668058
2022-11-07T05:05:39.890Z,9.667997
2022-11-07T05:06:40.788Z,9.668037
2022-11-07T05:07:39.880Z,9.667927
2022-11-07T05:08:39.876Z,9.667941
2022-11-07T05:09:39.843Z,9.667916
2022-11-07T05:10:39.861Z,9.667907
2022-11-07T05:11:39.831Z,9.667843
2022-11-07T05:12:39.818Z,9.667962
2022-11-07T05:13:39.839Z,9.668009
2022-11-07T05:14:39.811Z,9.668000
2022-11-07T05:15:39.822Z,9.668010
2022-11-07T05:16:39.777Z,9.667989
2022-11-07T05:17:39.765Z,9.668001
2022-11-07T05:18:39.780Z,9.668073
2022-11-07T05:19:40.434Z,9.668018
2022-11-07T05:20:39.744Z,9.667913
2022-11-07T05:21:39.749Z,9.667924
2022-11-07T05:22:39.731Z,9.667917
2022-11-07T05:23:39.773Z,9.667863
2022-11-07T05:24:39.724Z,9.667899
2022-11-07T05:25:39.748Z,9.667973
2022-11-07T05:26:40.003Z,9.668020
2022-11-07T05:27:39.705Z,9.668065
2022-11-07T05:28:40.084Z,9.667983
2022-11-07T05:29:39.670Z,9.668032
2022-11-07T05:30:39.732Z,9.668064
2022-11-07T05:31:39.693Z,9.668021
2022-11-07T05:32:39.638Z,9.668015
2022-11-07T05:33:39.655Z,9.668035
2022-11-07T05:34:39.670Z,9.668019
2022-11-07T05:35:39.669Z,9.668037
2022-11-07T05:36:40.437Z,9.668032
2022-11-07T05:37:39.609Z,9.668023
2022-11-07T05:38:39.746Z,9.668010
2022-11-07T05:39:39.581Z,9.668013
2022-11-07T05:40:39.588Z,9.667986
2022-11-07T05:41:39.601Z,9.668046
2022-11-07T05:42:39.650Z,9.668040
2022-11-07T05:43:39.580Z,9.667990
2022-11-07T05:44:39.570Z,9.667999
2022-11-07T05:45:39.583Z,9.668013
2022-11-07T05:46:39.578Z,9.667993
2022-11-07T05:47:39.571Z,9.667992
2022-11-07T05:48:39.537Z,9.667992
2022-11-07T05:49:39.539Z,9.668018
2022-11-07T05:50:39.535Z,9.668033
2022-11-07T05:51:39.518Z,9.668015
2022-11-07T05:52:39.542Z,9.668035
2022-11-07T05:53:39.517Z,9.667982
2022-11-07T05:54:39.563Z,9.668001
2022-11-07T05:55:39.515Z,9.667966
2022-11-07T05:56:39.477Z,9.667999
2022-11-07T05:57:39.496Z,9.667992
2022-11-07T05:58:39.458Z,9.668009
2022-11-07T05:59:39.476Z,9.668045
2022-11-07T06:00:39.443Z,9.668026
2022-11-07T06:01:39.572Z,9.668023
2022-11-07T06:02:39.661Z,9.668043
2022-11-07T06:03:39.454Z,9.667999
2022-11-07T06:04:39.426Z,9.667986
2022-11-07T06:05:39.420Z,9.667995
2022-11-07T06:06:39.406Z,9.667977
2022-11-07T06:07:39.416Z,9.667960
2022-11-07T06:08:39.387Z,9.668003
2022-11-07T06:09:39.402Z,9.667994
2022-11-07T06:10:39.399Z,9.668033
2022-11-07T06:11:39.350Z,9.668021
2022-11-07T06:12:39.364Z,9.667998
2022-11-07T06:13:39.332Z,9.668001
2022-11-07T06:14:39.362Z,9.667996
2022-11-07T06:15:39.336Z,9.668018
2022-11-07T06:16:39.348Z,9.667986
2022-11-07T06:17:39.300Z,9.667989
2022-11-07T06:18:41.744Z,9.667975
2022-11-07T06:19:40.329Z,9.667991
2022-11-07T06:20:39.273Z,9.667973
2022-11-07T06:21:39.301Z,9.667971
2022-11-07T06:22:39.270Z,9.667998
2022-11-07T06:23:39.274Z,9.667997
2022-11-07T06:24:39.297Z,9.668060
2022-11-07T06:25:39.271Z,9.667999
2022-11-07T06:26:39.236Z,9.668008
2022-11-07T06:27:39.272Z,9.667986
2022-11-07T06:28:39.249Z,9.667916
2022-11-07T06:29:39.251Z,9.667957
2022-11-07T06:30:39.217Z,9.668022
2022-11-07T06:31:39.251Z,9.668018
2022-11-07T06:32:39.195Z,9.667983
2022-11-07T06:33:39.225Z,9.668047
2022-11-07T06:34:39.173Z,9.668017
2022-11-07T06:35:39.181Z,9.668036
2022-11-07T06:36:39.162Z,9.667998
2022-11-07T06:37:39.186Z,9.668027
2022-11-07T06:38:39.153Z,9.668015
2022-11-07T06:39:39.195Z,9.668048
2022-11-07T06:40:39.146Z,9.668031
2022-11-07T06:41:39.118Z,9.667929
2022-11-07T06:42:39.204Z,9.667893
2022-11-07T06:43:39.198Z,9.667932
2022-11-07T06:44:39.093Z,9.667896
2022-11-07T06:45:39.116Z,9.667933
2022-11-07T06:46:39.090Z,9.667957
2022-11-07T06:47:39.125Z,9.667991
2022-11-07T06:48:39.103Z,9.667998
2022-11-07T06:49:39.066Z,9.667933
2022-11-07T06:50:39.054Z,9.667953
2022-11-07T06:51:41.701Z,9.667940
2022-11-07T06:52:39.087Z,9.667862
2022-11-07T06:53:39.039Z,9.667902
2022-11-07T06:54:39.023Z,9.668004
2022-11-07T06:55:39.038Z,9.667989
2022-11-07T06:56:39.008Z,9.667988
2022-11-07T06:57:39.018Z,9.668018
2022-11-07T06:58:39.027Z,9.668008
2022-11-07T06:59:38.993Z,9.668076
2022-11-07T07:00:39.084Z,9.668006
2022-11-07T07:01:39.176Z,9.667958
2022-11-07T07:02:57.479Z,9.667974
2022-11-07T07:03:40.961Z,9.668044
2022-11-07T07:04:38.963Z,9.667948
2022-11-07T07:05:38.969Z,9.667918
2022-11-07T07:06:38.956Z,9.668050
2022-11-07T07:07:38.946Z,9.668045
2022-11-07T07:08:38.951Z,9.668065
2022-11-07T07:09:38.898Z,9.668098
2022-11-07T07:10:38.902Z,9.667970
2022-11-07T07:11:38.922Z,9.668099
2022-11-07T07:12:38.882Z,9.668039
2022-11-07T07:13:38.910Z,9.668036
2022-11-07T07:14:38.953Z,9.668065
2022-11-07T07:15:50.310Z,9.667956
2022-11-07T07:16:40.850Z,9.667918
2022-11-07T07:17:38.869Z,9.667967
2022-11-07T07:18:38.870Z,9.668006
2022-11-07T07:19:38.824Z,9.668043
2022-11-07T07:20:38.824Z,9.668037
2022-11-07T07:21:38.858Z,9.668049
2022-11-07T07:22:38.821Z,9.668014
2022-11-07T07:23:38.797Z,9.668119
2022-11-07T07:24:38.802Z,9.668159
2022-11-07T07:25:39.341Z,9.668144
2022-11-07T07:26:38.797Z,9.668042
2022-11-07T07:27:38.797Z,9.668078
2022-11-07T07:28:38.755Z,9.668073
2022-11-07T07:29:38.814Z,9.667983
2022-11-07T07:30:38.868Z,9.668062
2022-11-07T07:31:38.763Z,9.668054
2022-11-07T07:32:38.742Z,9.668086
2022-11-07T07:33:38.732Z,9.668081
2022-11-07T07:34:39.719Z,9.668058
2022-11-07T07:35:38.756Z,9.668036
2022-11-07T07:36:38.725Z,9.668026
2022-11-07T07:37:38.691Z,9.667982
2022-11-07T07:38:38.688Z,9.668020
2022-11-07T07:39:39.686Z,9.668076
2022-11-07T07:40:38.710Z,9.668130
2022-11-07T07:41:40.295Z,9.668065
2022-11-07T07:42:39.644Z,9.668019
2022-11-07T07:43:38.678Z,9.668056
2022-11-07T07:44:38.619Z,9.668073
2022-11-07T07:45:38.641Z,9.668047
2022-11-07T07:46:38.775Z,9.668065
2022-11-07T07:47:38.621Z,9.668041
2022-11-07T07:48:38.612Z,9.668051
2022-11-07T07:49:38.617Z,9.668141
2022-11-07T07:50:38.613Z,9.668110
2022-11-07T07:51:38.632Z,9.668095
2022-11-07T07:52:38.567Z,9.668074
2022-11-07T07:53:38.602Z,9.668056
2022-11-07T07:54:38.553Z,9.668091
2022-11-07T07:55:38.587Z,9.668093
2022-11-07T07:56:38.562Z,9.668021
2022-11-07T07:57:38.519Z,9.668031
2022-11-07T07:58:38.534Z,9.667969
2022-11-07T07:59:38.524Z,9.668024
2022-11-07T08:00:38.563Z,9.668065
2022-11-07T08:01:38.597Z,9.668097
2022-11-07T08:02:39.645Z,9.668062
2022-11-07T08:03:59.518Z,9.668077
2022-11-07T08:04:40.502Z,9.668088
2022-11-07T08:05:38.552Z,9.668113
2022-11-07T08:06:38.519Z,9.668079
2022-11-07T08:07:38.530Z,9.668055
2022-11-07T08:08:38.605Z,9.668063
2022-11-07T08:09:38.448Z,9.668032
2022-11-07T08:10:43.001Z,9.668036
2022-11-07T08:11:39.445Z,9.668064
2022-11-07T08:12:38.414Z,9.668073
2022-11-07T08:13:38.456Z,9.668049
2022-11-07T08:14:38.429Z,9.668058
2022-11-07T08:16:10.423Z,9.668089
2022-11-07T08:16:38.456Z,9.668131
2022-11-07T08:17:38.425Z,9.668070
2022-11-07T08:18:38.462Z,9.668098
2022-11-07T08:19:38.365Z,9.668129
2022-11-07T08:20:38.358Z,9.668111
2022-11-07T08:21:38.362Z,9.668092
2022-11-07T08:22:38.336Z,9.668105
2022-11-07T08:23:38.382Z,9.668086
2022-11-07T08:24:38.342Z,9.668083
2022-11-07T08:25:38.313Z,9.668076
2022-11-07T08:26:38.324Z,9.668054
2022-11-07T08:27:38.321Z,9.668061
2022-11-07T08:28:38.389Z,9.668092
2022-11-07T08:29:38.313Z,9.668084
2022-11-07T08:30:38.342Z,9.668074
2022-11-07T08:31:38.298Z,9.668093
2022-11-07T08:32:38.281Z,9.668082
2022-11-07T08:33:38.361Z,9.668070
2022-11-07T08:34:38.291Z,9.668096
2022-11-07T08:35:42.438Z,9.668106
2022-11-07T08:36:39.266Z,9.668091
2022-11-07T08:37:38.290Z,9.668061
2022-11-07T08:38:38.258Z,9.668058
2022-11-07T08:39:38.264Z,9.668095
2022-11-07T08:40:38.251Z,9.668124
2022-11-07T08:41:38.209Z,9.668075
2022-11-07T08:42:38.269Z,9.668097
2022-11-07T08:43:38.197Z,9.668095
2022-11-07T08:44:38.192Z,9.668053
2022-11-07T08:45:38.203Z,9.668055
2022-11-07T08:46:38.289Z,9.668059
2022-11-07T08:47:38.164Z,9.668069
2022-11-07T08:48:38.206Z,9.668085
2022-11-07T08:49:38.152Z,9.668081
2022-11-07T08:50:38.260Z,9.668083
2022-11-07T08:51:38.168Z,9.668094
2022-11-07T08:52:39.174Z,9.668057
2022-11-07T08:53:38.094Z,9.668056
2022-11-07T08:54:38.114Z,9.668057
2022-11-07T08:55:38.125Z,9.668062
2022-11-07T08:56:38.128Z,9.668038
2022-11-07T08:57:38.055Z,9.668064
2022-11-07T08:58:38.094Z,9.668087
2022-11-07T08:59:38.050Z,9.668086
2022-11-07T09:00:38.115Z,9.668083
2022-11-07T09:01:55.992Z,9.668091
2022-11-07T09:03:54.662Z,9.668058
2022-11-07T09:04:40.162Z,9.668071
2022-11-07T09:05:38.031Z,9.668068
2022-11-07T09:06:37.997Z,9.668069
2022-11-07T09:07:37.992Z,9.668089
2022-11-07T09:08:37.982Z,9.668141
2022-11-07T09:09:37.970Z,9.668139
2022-11-07T09:10:37.994Z,9.668117
2022-11-07T09:11:37.978Z,9.668101
2022-11-07T09:12:37.988Z,9.668088
2022-11-07T09:13:37.989Z,9.668086
2022-11-07T09:14:37.921Z,9.668073
2022-11-07T09:15:37.913Z,9.668056
2022-11-07T09:16:37.945Z,9.668077
2022-11-07T09:17:37.904Z,9.668107
2022-11-07T09:18:37.895Z,9.668082
2022-11-07T09:19:37.946Z,9.668070
2022-11-07T09:20:37.899Z,9.668048
2022-11-07T09:21:38.126Z,9.668068
2022-11-07T09:22:37.916Z,9.668048
2022-11-07T09:23:37.878Z,9.668044
2022-11-07T09:24:37.889Z,9.668076
2022-11-07T09:25:37.874Z,9.668058
2022-11-07T09:26:37.876Z,9.668077
2022-11-07T09:27:37.828Z,9.668083
2022-11-07T09:28:37.839Z,9.668083
2022-11-07T09:29:37.848Z,9.668041
2022-11-07T09:30:37.804Z,9.668050
2022-11-07T09:31:37.819Z,9.668040
2022-11-07T09:32:45.126Z,9.668068
2022-11-07T09:33:39.824Z,9.668064
2022-11-07T09:34:37.819Z,9.668028
2022-11-07T09:35:37.751Z,9.668036
2022-11-07T09:36:37.800Z,9.668084
2022-11-07T09:37:37.732Z,9.668021
2022-11-07T09:38:37.760Z,9.668047
2022-11-07T09:39:37.776Z,9.668060
2022-11-07T09:40:37.757Z,9.668014
2022-11-07T09:41:37.721Z,9.668044
2022-11-07T09:42:38.485Z,9.668010
2022-11-07T09:43:37.695Z,9.668073
2022-11-07T09:44:37.844Z,9.668083
2022-11-07T09:45:37.698Z,9.668043
2022-11-07T09:46:37.701Z,9.668012
2022-11-07T09:47:37.699Z,9.667975
2022-11-07T09:48:37.672Z,9.667987
2022-11-07T09:49:37.671Z,9.668038
2022-11-07T09:50:37.648Z,9.668048
2022-11-07T09:51:37.678Z,9.668046
2022-11-07T09:52:37.672Z,9.668130
2022-11-07T09:53:37.652Z,9.668020
2022-11-07T09:54:37.614Z,9.668111
2022-11-07T09:55:37.604Z,9.668036
2022-11-07T09:56:37.633Z,9.668100
2022-11-07T09:57:37.661Z,9.668062
2022-11-07T09:58:37.698Z,9.668060
2022-11-07T09:59:37.607Z,9.668000
2022-11-07T10:00:37.672Z,9.668010
2022-11-07T10:01:37.718Z,9.668097
2022-11-07T10:02:37.574Z,9.668067
2022-11-07T10:03:37.583Z,9.668034
2022-11-07T10:04:37.563Z,9.668013
2022-11-07T10:05:37.531Z,9.667940
2022-11-07T10:06:37.538Z,9.668035
2022-11-07T10:07:37.516Z,9.667956
2022-11-07T10:08:37.527Z,9.667998
2022-11-07T10:09:37.502Z,9.668028
2022-11-07T10:10:37.512Z,9.668090
2022-11-07T10:11:37.507Z,9.668076
2022-11-07T10:12:43.258Z,9.668024
2022-11-07T10:13:39.482Z,9.668018
2022-11-07T10:14:37.489Z,9.668052
2022-11-07T10:15:37.463Z,9.668054
2022-11-07T10:16:37.512Z,9.668038
2022-11-07T10:17:37.444Z,9.668016
2022-11-07T10:18:37.436Z,9.668041
2022-11-07T10:19:37.435Z,9.668094
2022-11-07T10:20:37.422Z,9.668078
2022-11-07T10:21:38.792Z,9.668070
2022-11-07T10:22:38.377Z,9.668075
2022-11-07T10:23:37.390Z,9.668113
2022-11-07T10:24:37.383Z,9.668095
2022-11-07T10:25:37.380Z,9.668094
2022-11-07T10:26:37.362Z,9.668096
2022-11-07T10:27:37.360Z,9.668097
2022-11-07T10:28:37.378Z,9.668068
2022-11-07T10:29:43.252Z,9.668060
2022-11-07T10:30:39.318Z,9.668052
2022-11-07T10:31:37.323Z,9.668055
2022-11-07T10:32:37.326Z,9.668085
2022-11-07T10:33:37.325Z,9.668049
2022-11-07T10:34:37.297Z,9.668027
2022-11-07T10:35:37.300Z,9.668077
2022-11-07T10:36:37.296Z,9.668052
2022-11-07T10:37:37.289Z,9.668043
2022-11-07T10:38:37.297Z,9.668000
2022-11-07T10:39:37.246Z,9.668028
2022-11-07T10:40:37.247Z,9.668034
2022-11-07T10:41:37.289Z,9.668034
2022-11-07T10:42:37.272Z,9.668040
2022-11-07T10:43:37.238Z,9.668028
2022-11-07T10:44:37.229Z,9.668025
2022-11-07T10:45:37.219Z,9.668015
2022-11-07T10:46:37.201Z,9.668050
2022-11-07T10:47:37.179Z,9.667994
2022-11-07T10:48:37.598Z,9.668080
2022-11-07T10:49:37.168Z,9.668042
2022-11-07T10:50:37.173Z,9.668055
2022-11-07T10:51:37.187Z,9.668048
2022-11-07T10:52:37.162Z,9.668057
2022-11-07T10:53:37.140Z,9.668025
2022-11-07T10:54:37.161Z,9.668034
2022-11-07T10:55:37.143Z,9.667997
2022-11-07T10:56:37.110Z,9.668015
2022-11-07T10:57:37.131Z,9.668023
2022-11-07T10:58:37.135Z,9.668036
2022-11-07T10:59:37.232Z,9.668036
2022-11-07T11:00:37.128Z,9.668029
2022-11-07T11:01:37.296Z,9.668020
2022-11-07T11:02:37.095Z,9.668015
2022-11-07T11:03:44.335Z,9.668036
2022-11-07T11:04:39.049Z,9.668043
2022-11-07T11:05:37.046Z,9.668007
2022-11-07T11:06:37.064Z,9.667978
2022-11-07T11:07:37.020Z,9.668013
2022-11-07T11:08:37.042Z,9.667996
2022-11-07T11:09:37.016Z,9.668043
2022-11-07T11:10:37.009Z,9.668013
2022-11-07T11:11:37.000Z,9.668002
2022-11-07T11:12:37.407Z,9.668027
2022-11-07T11:13:36.992Z,9.668006
2022-11-07T11:14:37.059Z,9.668000
2022-11-07T11:15:36.985Z,9.667962
2022-11-07T11:16:36.976Z,9.668004
2022-11-07T11:17:36.989Z,9.668003
2022-11-07T11:18:37.008Z,9.668002
2022-11-07T11:19:36.944Z,9.668010
2022-11-07T11:20:36.950Z,9.667994
2022-11-07T11:21:36.960Z,9.667981
2022-11-07T11:22:36.961Z,9.667972
2022-11-07T11:23:36.947Z,9.667979
2022-11-07T11:24:36.928Z,9.668001
2022-11-07T11:25:36.919Z,9.667990
2022-11-07T11:26:36.907Z,9.668018
2022-11-07T11:27:36.863Z,9.667976
2022-11-07T11:28:36.879Z,9.667972
2022-11-07T11:29:39.719Z,9.667932
2022-11-07T11:30:37.852Z,9.667974
2022-11-07T11:31:36.869Z,9.668009
2022-11-07T11:32:36.837Z,9.667963
2022-11-07T11:33:36.876Z,9.667955
2022-11-07T11:34:36.840Z,9.667981
2022-11-07T11:35:41.658Z,9.668010
2022-11-07T11:36:38.820Z,9.667996
2022-11-07T11:37:36.809Z,9.668035
2022-11-07T11:38:36.829Z,9.667958
2022-11-07T11:39:36.828Z,9.668008
2022-11-07T11:40:36.770Z,9.668028
2022-11-07T11:41:36.769Z,9.668042
2022-11-07T11:42:36.762Z,9.667995
2022-11-07T11:43:36.778Z,9.667993
2022-11-07T11:44:36.738Z,9.667992
2022-11-07T11:45:36.734Z,9.667965
2022-11-07T11:46:36.940Z,9.667959
2022-11-07T11:47:36.745Z,9.667904
2022-11-07T11:48:36.753Z,9.667981
2022-11-07T11:49:36.706Z,9.667959
2022-11-07T11:50:36.720Z,9.668029
2022-11-07T11:51:36.722Z,9.667994
2022-11-07T11:52:36.704Z,9.668038
2022-11-07T11:53:36.656Z,9.667979
2022-11-07T11:54:36.657Z,9.667992
2022-11-07T11:55:36.725Z,9.667936
2022-11-07T11:56:36.637Z,9.667942
2022-11-07T11:57:36.650Z,9.667970
2022-11-07T11:58:36.672Z,9.667952
2022-11-07T11:59:36.638Z,9.667958
2022-11-07T12:00:36.642Z,9.668009
2022-11-07T12:01:36.688Z,9.668021
2022-11-07T12:02:36.643Z,9.668088
2022-11-07T12:03:36.592Z,9.668060
2022-11-07T12:04:36.603Z,9.668103
2022-11-07T12:05:36.569Z,9.668065
2022-11-07T12:06:36.641Z,9.668084
2022-11-07T12:07:36.601Z,9.668125
2022-11-07T12:08:36.594Z,9.668089
2022-11-07T12:09:36.561Z,9.668012
2022-11-07T12:10:36.535Z,9.668012
2022-11-07T12:11:36.554Z,9.667972
2022-11-07T12:12:36.556Z,9.667962
2022-11-07T12:13:36.515Z,9.667955
2022-11-07T12:14:36.517Z,9.667966
2022-11-07T12:15:36.517Z,9.667912
2022-11-07T12:16:36.516Z,9.667953
2022-11-07T12:17:36.516Z,9.667994
2022-11-07T12:18:36.577Z,9.667965
2022-11-07T12:19:36.448Z,9.667983
2022-11-07T12:20:36.487Z,9.667937
2022-11-07T12:21:36.471Z,9.667937
2022-11-07T12:22:36.453Z,9.667994
2022-11-07T12:23:36.457Z,9.667967